sensor_id;sensor_type;location;lat;lon;timestamp;pressure;altitude;pressure_sealevel;temperature;humidity
38054;BME280;23859;50.672;7.164;2023-05-19T00:01:32;47373.44;;;-140.95;61.40
38054;BME280;23859;50.672;7.164;2023-05-19T00:04:02;47399.66;;;-140.95;60.77
38054;BME280;23859;50.672;7.164;2023-05-19T00:06:31;47321.06;;;-140.95;60.12
38054;BME280;23859;50.672;7.164;2023-05-19T00:09:00;47405.69;;;-140.95;59.79
38054;BME280;23859;50.672;7.164;2023-05-19T00:11:27;47371.44;;;-140.95;57.61
38054;BME280;23859;50.672;7.164;2023-05-19T00:13:57;47395.63;;;-140.95;59.22
38054;BME280;23859;50.672;7.164;2023-05-19T00:16:26;47371.44;;;-140.95;57.21
38054;BME280;23859;50.672;7.164;2023-05-19T00:18:52;47413.75;;;-140.95;59.03
38054;BME280;23859;50.672;7.164;2023-05-19T00:21:19;47389.56;;;-140.95;58.15
38054;BME280;23859;50.672;7.164;2023-05-19T00:23:45;47411.75;;;-140.95;59.63
38054;BME280;23859;50.672;7.164;2023-05-19T00:26:11;47413.75;;;-140.95;59.89
38054;BME280;23859;50.672;7.164;2023-05-19T00:28:38;47409.72;;;-140.95;59.46
38054;BME280;23859;50.672;7.164;2023-05-19T00:31:06;47423.81;;;-140.95;60.00
38054;BME280;23859;50.672;7.164;2023-05-19T00:33:33;47429.88;;;-140.95;60.48
38054;BME280;23859;50.672;7.164;2023-05-19T00:36:00;47439.94;;;-140.95;60.56
38054;BME280;23859;50.672;7.164;2023-05-19T00:38:31;47429.88;;;-140.95;60.14
38054;BME280;23859;50.672;7.164;2023-05-19T00:40:58;47427.84;;;-140.95;60.97
38054;BME280;23859;50.672;7.164;2023-05-19T00:43:25;47415.78;;;-140.95;60.94
38054;BME280;23859;50.672;7.164;2023-05-19T00:45:51;47425.84;;;-140.95;62.14
38054;BME280;23859;50.672;7.164;2023-05-19T00:48:17;47429.88;;;-140.95;63.46
38054;BME280;23859;50.672;7.164;2023-05-19T00:50:44;47433.91;;;-140.95;62.72
38054;BME280;23859;50.672;7.164;2023-05-19T00:53:12;47429.88;;;-140.95;62.45
38054;BME280;23859;50.672;7.164;2023-05-19T00:55:39;47431.88;;;-140.95;63.51
38054;BME280;23859;50.672;7.164;2023-05-19T00:58:07;47417.78;;;-140.95;63.38
38054;BME280;23859;50.672;7.164;2023-05-19T01:00:34;47443.97;;;-140.95;63.45
38054;BME280;23859;50.672;7.164;2023-05-19T01:03:02;47466.16;;;-140.95;63.98
38054;BME280;23859;50.672;7.164;2023-05-19T01:05:44;47435.91;;;-140.95;64.51
38054;BME280;23859;50.672;7.164;2023-05-19T01:08:11;47466.16;;;-140.95;63.24
38054;BME280;23859;50.672;7.164;2023-05-19T01:10:37;47472.19;;;-140.95;64.74
38054;BME280;23859;50.672;7.164;2023-05-19T01:13:04;47458.09;;;-140.95;64.46
38054;BME280;23859;50.672;7.164;2023-05-19T01:15:33;47437.94;;;-140.95;63.90
38054;BME280;23859;50.672;7.164;2023-05-19T01:18:10;47452.03;;;-140.95;65.10
38054;BME280;23859;50.672;7.164;2023-05-19T01:20:40;47470.19;;;-140.95;64.97
38054;BME280;23859;50.672;7.164;2023-05-19T01:23:33;47450.03;;;-140.95;65.61
38054;BME280;23859;50.672;7.164;2023-05-19T01:26:34;47474.22;;;-140.95;65.74
38054;BME280;23859;50.672;7.164;2023-05-19T01:32:03;47470.19;;;-140.95;66.87
38054;BME280;23859;50.672;7.164;2023-05-19T01:34:32;47498.38;;;-140.95;66.88
38054;BME280;23859;50.672;7.164;2023-05-19T01:37:00;47466.16;;;-140.95;65.92
38054;BME280;23859;50.672;7.164;2023-05-19T01:39:27;47441.97;;;-140.95;67.50
38054;BME280;23859;50.672;7.164;2023-05-19T01:41:54;47482.25;;;-140.95;66.63
38054;BME280;23859;50.672;7.164;2023-05-19T01:44:22;47472.19;;;-140.95;66.98
38054;BME280;23859;50.672;7.164;2023-05-19T01:46:49;47482.25;;;-140.95;66.92
38054;BME280;23859;50.672;7.164;2023-05-19T01:49:15;47488.31;;;-140.95;67.52
38054;BME280;23859;50.672;7.164;2023-05-19T01:51:41;47490.31;;;-140.95;68.35
38054;BME280;23859;50.672;7.164;2023-05-19T01:54:07;47502.41;;;-140.95;68.86
38054;BME280;23859;50.672;7.164;2023-05-19T01:56:47;47496.38;;;-140.95;69.25
38054;BME280;23859;50.672;7.164;2023-05-19T01:59:23;47502.41;;;-140.95;69.44
38054;BME280;23859;50.672;7.164;2023-05-19T02:01:53;47504.44;;;-140.95;69.65
38054;BME280;23859;50.672;7.164;2023-05-19T02:04:45;47486.28;;;-140.95;68.86
38054;BME280;23859;50.672;7.164;2023-05-19T02:07:25;47490.31;;;-140.95;69.22
38054;BME280;23859;50.672;7.164;2023-05-19T02:10:05;47502.41;;;-140.95;70.34
38054;BME280;23859;50.672;7.164;2023-05-19T02:12:36;47502.41;;;-140.95;69.63
38054;BME280;23859;50.672;7.164;2023-05-19T02:15:20;47502.41;;;-140.95;69.13
38054;BME280;23859;50.672;7.164;2023-05-19T02:17:47;47494.34;;;-140.95;69.02
38054;BME280;23859;50.672;7.164;2023-05-19T02:20:17;47484.28;;;-140.95;69.57
38054;BME280;23859;50.672;7.164;2023-05-19T02:22:43;47486.28;;;-140.95;69.78
38054;BME280;23859;50.672;7.164;2023-05-19T02:25:10;47504.44;;;-140.95;70.21
38054;BME280;23859;50.672;7.164;2023-05-19T02:27:37;47496.38;;;-140.95;69.73
38054;BME280;23859;50.672;7.164;2023-05-19T02:30:07;47510.47;;;-140.95;70.32
38054;BME280;23859;50.672;7.164;2023-05-19T02:32:34;47512.50;;;-140.95;69.27
38054;BME280;23859;50.672;7.164;2023-05-19T02:35:01;47512.50;;;-140.95;69.97
38054;BME280;23859;50.672;7.164;2023-05-19T02:37:27;47506.44;;;-140.95;69.84
38054;BME280;23859;50.672;7.164;2023-05-19T02:39:54;47522.56;;;-140.95;69.49
38054;BME280;23859;50.672;7.164;2023-05-19T02:42:20;47512.50;;;-140.95;69.52
38054;BME280;23859;50.672;7.164;2023-05-19T02:44:46;47510.47;;;-140.95;69.83
38054;BME280;23859;50.672;7.164;2023-05-19T02:47:13;47518.53;;;-140.95;69.89
38054;BME280;23859;50.672;7.164;2023-05-19T02:49:39;47504.44;;;-140.95;69.68
38054;BME280;23859;50.672;7.164;2023-05-19T02:52:06;47514.50;;;-140.95;70.68
38054;BME280;23859;50.672;7.164;2023-05-19T02:54:33;47526.59;;;-140.95;70.55
38054;BME280;23859;50.672;7.164;2023-05-19T02:56:59;47530.63;;;-140.95;71.24
38054;BME280;23859;50.672;7.164;2023-05-19T02:59:26;47530.63;;;-140.95;71.48
38054;BME280;23859;50.672;7.164;2023-05-19T03:01:55;47530.63;;;-140.95;71.46
38054;BME280;23859;50.672;7.164;2023-05-19T03:04:21;47546.75;;;-140.95;71.48
38054;BME280;23859;50.672;7.164;2023-05-19T03:06:47;47534.66;;;-140.95;71.64
38054;BME280;23859;50.672;7.164;2023-05-19T03:09:13;47548.75;;;-140.95;71.52
38054;BME280;23859;50.672;7.164;2023-05-19T03:11:40;47528.63;;;-140.95;72.17
38054;BME280;23859;50.672;7.164;2023-05-19T03:14:06;47520.56;;;-140.95;71.42
38054;BME280;23859;50.672;7.164;2023-05-19T03:16:35;47546.75;;;-140.95;72.25
38054;BME280;23859;50.672;7.164;2023-05-19T03:19:01;47448.00;;;-140.95;72.22
38054;BME280;23859;50.672;7.164;2023-05-19T03:21:27;47546.75;;;-140.95;72.08
38054;BME280;23859;50.672;7.164;2023-05-19T03:23:53;47528.63;;;-140.95;71.95
38054;BME280;23859;50.672;7.164;2023-05-19T03:26:19;47548.75;;;-140.95;71.88
38054;BME280;23859;50.672;7.164;2023-05-19T03:28:47;47538.69;;;-140.95;71.95
38054;BME280;23859;50.672;7.164;2023-05-19T03:31:13;47542.72;;;-140.95;72.59
38054;BME280;23859;50.672;7.164;2023-05-19T03:33:39;47544.75;;;-140.95;72.50
38054;BME280;23859;50.672;7.164;2023-05-19T03:36:06;47556.81;;;-140.95;72.79
38054;BME280;23859;50.672;7.164;2023-05-19T03:38:32;47546.75;;;-140.95;74.07
38054;BME280;23859;50.672;7.164;2023-05-19T03:40:58;47550.78;;;-140.95;73.11
38054;BME280;23859;50.672;7.164;2023-05-19T03:43:24;47502.41;;;-140.95;73.41
38054;BME280;23859;50.672;7.164;2023-05-19T03:45:50;47534.66;;;-140.95;72.94
38054;BME280;23859;50.672;7.164;2023-05-19T03:48:16;47546.75;;;-140.95;72.32
38054;BME280;23859;50.672;7.164;2023-05-19T03:50:42;47534.66;;;-140.95;71.99
38054;BME280;23859;50.672;7.164;2023-05-19T03:53:09;47554.81;;;-140.95;73.64
38054;BME280;23859;50.672;7.164;2023-05-19T03:55:35;47570.94;;;-140.95;73.12
38054;BME280;23859;50.672;7.164;2023-05-19T03:58:02;47570.94;;;-140.95;72.81
38054;BME280;23859;50.672;7.164;2023-05-19T04:00:28;47552.78;;;-140.95;73.17
38054;BME280;23859;50.672;7.164;2023-05-19T04:02:55;47558.84;;;-140.95;73.44
38054;BME280;23859;50.672;7.164;2023-05-19T04:05:21;47550.78;;;-140.95;73.93
38054;BME280;23859;50.672;7.164;2023-05-19T04:07:47;47544.75;;;-140.95;73.82
38054;BME280;23859;50.672;7.164;2023-05-19T04:10:13;47554.81;;;-140.95;73.91
38054;BME280;23859;50.672;7.164;2023-05-19T04:12:39;47554.81;;;-140.95;74.28
38054;BME280;23859;50.672;7.164;2023-05-19T04:15:05;47564.88;;;-140.95;73.72
38054;BME280;23859;50.672;7.164;2023-05-19T04:17:32;47550.78;;;-140.95;73.45
38054;BME280;23859;50.672;7.164;2023-05-19T04:19:58;47560.84;;;-140.95;73.93
38054;BME280;23859;50.672;7.164;2023-05-19T04:22:24;47564.88;;;-140.95;74.03
38054;BME280;23859;50.672;7.164;2023-05-19T04:24:50;47544.75;;;-140.95;73.91
38054;BME280;23859;50.672;7.164;2023-05-19T04:27:18;47554.81;;;-140.95;74.16
38054;BME280;23859;50.672;7.164;2023-05-19T04:29:44;47530.63;;;-140.95;73.99
38054;BME280;23859;50.672;7.164;2023-05-19T04:32:13;47522.56;;;-140.95;73.80
38054;BME280;23859;50.672;7.164;2023-05-19T04:34:42;47526.59;;;-140.95;73.39
38054;BME280;23859;50.672;7.164;2023-05-19T04:37:12;47532.66;;;-140.95;73.04
38054;BME280;23859;50.672;7.164;2023-05-19T04:39:39;47518.53;;;-140.95;72.98
38054;BME280;23859;50.672;7.164;2023-05-19T04:42:08;47518.53;;;-140.95;72.73
38054;BME280;23859;50.672;7.164;2023-05-19T04:44:35;47522.56;;;-140.95;72.15
38054;BME280;23859;50.672;7.164;2023-05-19T04:47:03;47522.56;;;-140.95;72.18
38054;BME280;23859;50.672;7.164;2023-05-19T04:49:31;47518.53;;;-140.95;71.64
38054;BME280;23859;50.672;7.164;2023-05-19T04:51:57;47506.44;;;-140.95;71.91
38054;BME280;23859;50.672;7.164;2023-05-19T04:54:23;47498.38;;;-140.95;71.49
38054;BME280;23859;50.672;7.164;2023-05-19T04:56:49;47486.28;;;-140.95;71.14
38054;BME280;23859;50.672;7.164;2023-05-19T04:59:15;47486.28;;;-140.95;70.25
38054;BME280;23859;50.672;7.164;2023-05-19T05:01:41;47490.31;;;-140.95;69.70
38054;BME280;23859;50.672;7.164;2023-05-19T05:04:08;47502.41;;;-140.95;68.91
38054;BME280;23859;50.672;7.164;2023-05-19T05:06:34;47478.22;;;-140.95;69.42
38054;BME280;23859;50.672;7.164;2023-05-19T05:09:03;47474.22;;;-140.95;69.45
38054;BME280;23859;50.672;7.164;2023-05-19T05:11:29;47474.22;;;-140.95;68.53
38054;BME280;23859;50.672;7.164;2023-05-19T05:13:56;47478.22;;;-140.95;67.55
38054;BME280;23859;50.672;7.164;2023-05-19T05:16:25;47468.16;;;-140.95;66.97
38054;BME280;23859;50.672;7.164;2023-05-19T05:18:51;47308.97;;;-140.95;67.79
38054;BME280;23859;50.672;7.164;2023-05-19T05:21:18;47470.19;;;-140.95;66.79
38054;BME280;23859;50.672;7.164;2023-05-19T05:23:44;47441.97;;;-140.95;66.23
38054;BME280;23859;50.672;7.164;2023-05-19T05:26:18;47458.09;;;-140.95;65.48
38054;BME280;23859;50.672;7.164;2023-05-19T05:28:44;47454.06;;;-140.95;64.20
38054;BME280;23859;50.672;7.164;2023-05-19T05:31:10;47450.03;;;-140.95;65.80
38054;BME280;23859;50.672;7.164;2023-05-19T05:33:37;47431.88;;;-140.95;65.77
38054;BME280;23859;50.672;7.164;2023-05-19T05:36:03;47435.91;;;-140.95;65.58
38054;BME280;23859;50.672;7.164;2023-05-19T05:38:30;47431.88;;;-140.95;64.51
38054;BME280;23859;50.672;7.164;2023-05-19T05:40:56;47419.78;;;-140.95;65.02
38054;BME280;23859;50.672;7.164;2023-05-19T05:43:22;47409.72;;;-140.95;63.96
38054;BME280;23859;50.672;7.164;2023-05-19T05:45:48;47397.63;;;-140.95;62.58
38054;BME280;23859;50.672;7.164;2023-05-19T05:48:14;47413.75;;;-140.95;62.54
38054;BME280;23859;50.672;7.164;2023-05-19T05:50:42;47425.84;;;-140.95;63.68
38054;BME280;23859;50.672;7.164;2023-05-19T05:53:09;47383.53;;;-140.95;62.13
38054;BME280;23859;50.672;7.164;2023-05-19T05:55:41;47393.59;;;-140.95;61.41
38054;BME280;23859;50.672;7.164;2023-05-19T05:58:07;47395.63;;;-140.95;60.14
38054;BME280;23859;50.672;7.164;2023-05-19T06:00:36;47379.50;;;-140.95;60.72
38054;BME280;23859;50.672;7.164;2023-05-19T06:03:02;47375.47;;;-140.95;59.60
38054;BME280;23859;50.672;7.164;2023-05-19T06:05:29;47361.34;;;-140.95;58.89
38054;BME280;23859;50.672;7.164;2023-05-19T06:07:55;47341.22;;;-140.95;57.19
38054;BME280;23859;50.672;7.164;2023-05-19T06:10:21;47349.28;;;-140.95;57.58
38054;BME280;23859;50.672;7.164;2023-05-19T06:12:48;47333.16;;;-140.95;56.56
38054;BME280;23859;50.672;7.164;2023-05-19T06:15:14;47335.16;;;-140.95;55.30
38054;BME280;23859;50.672;7.164;2023-05-19T06:17:40;47321.06;;;-140.95;54.54
38054;BME280;23859;50.672;7.164;2023-05-19T06:20:06;47355.31;;;-140.95;54.42
38054;BME280;23859;50.672;7.164;2023-05-19T06:22:35;47308.97;;;-140.95;53.85
38054;BME280;23859;50.672;7.164;2023-05-19T06:25:01;47302.91;;;-140.95;53.13
38054;BME280;23859;50.672;7.164;2023-05-19T06:27:27;47294.88;;;-140.95;51.65
38054;BME280;23859;50.672;7.164;2023-05-19T06:29:53;47296.88;;;-140.95;50.97
38054;BME280;23859;50.672;7.164;2023-05-19T06:32:19;47290.84;;;-140.95;50.56
38054;BME280;23859;50.672;7.164;2023-05-19T06:34:45;47308.97;;;-140.95;51.75
38054;BME280;23859;50.672;7.164;2023-05-19T06:37:21;47313.00;;;-140.95;51.22
38054;BME280;23859;50.672;7.164;2023-05-19T06:39:52;47268.66;;;-140.95;49.95
38054;BME280;23859;50.672;7.164;2023-05-19T06:42:21;47254.56;;;-140.95;48.34
38054;BME280;23859;50.672;7.164;2023-05-19T06:44:51;47377.47;;;-140.95;47.77
38054;BME280;23859;50.672;7.164;2023-05-19T06:47:18;47266.66;;;-140.95;48.47
38054;BME280;23859;50.672;7.164;2023-05-19T06:49:44;47284.78;;;-140.95;48.68
38054;BME280;23859;50.672;7.164;2023-05-19T06:52:11;47260.59;;;-140.95;48.29
38054;BME280;23859;50.672;7.164;2023-05-19T06:54:37;47278.75;;;-140.95;48.94
38054;BME280;23859;50.672;7.164;2023-05-19T06:57:03;47252.53;;;-140.95;47.76
38054;BME280;23859;50.672;7.164;2023-05-19T06:59:29;47276.72;;;-140.95;46.69
38054;BME280;23859;50.672;7.164;2023-05-19T07:01:55;47246.50;;;-140.95;46.22
38054;BME280;23859;50.672;7.164;2023-05-19T07:04:21;47224.34;;;-140.95;44.80
38054;BME280;23859;50.672;7.164;2023-05-19T07:06:47;47192.09;;;-140.95;43.67
38054;BME280;23859;50.672;7.164;2023-05-19T07:09:15;47135.69;;;-140.95;41.05
38054;BME280;23859;50.672;7.164;2023-05-19T07:11:41;47030.91;;;-140.95;35.60
38054;BME280;23859;50.672;7.164;2023-05-19T07:14:07;46974.47;;;-140.95;31.56
38054;BME280;23859;50.672;7.164;2023-05-19T07:16:33;46889.84;;;-140.95;29.14
38054;BME280;23859;50.672;7.164;2023-05-19T07:18:59;46845.53;;;-140.95;25.48
38054;BME280;23859;50.672;7.164;2023-05-19T07:21:25;46754.88;;;-140.95;23.26
38054;BME280;23859;50.672;7.164;2023-05-19T07:23:51;46857.63;;;-140.95;25.04
38054;BME280;23859;50.672;7.164;2023-05-19T07:26:17;46849.56;;;-140.95;25.11
38054;BME280;23859;50.672;7.164;2023-05-19T07:28:44;46875.75;;;-140.95;24.13
38054;BME280;23859;50.672;7.164;2023-05-19T07:31:10;46970.44;;;-140.95;28.76
38054;BME280;23859;50.672;7.164;2023-05-19T07:33:36;46823.38;;;-140.95;24.64
38054;BME280;23859;50.672;7.164;2023-05-19T07:36:02;46726.66;;;-140.95;22.19
38054;BME280;23859;50.672;7.164;2023-05-19T07:38:29;46748.81;;;-140.95;20.62
38054;BME280;23859;50.672;7.164;2023-05-19T07:41:01;46724.66;;;-140.95;20.20
38054;BME280;23859;50.672;7.164;2023-05-19T07:43:28;46658.16;;;-140.95;18.83
38054;BME280;23859;50.672;7.164;2023-05-19T07:45:54;46640.03;;;-140.95;18.42
38054;BME280;23859;50.672;7.164;2023-05-19T07:48:21;46664.19;;;-140.95;19.11
38054;BME280;23859;50.672;7.164;2023-05-19T07:50:49;46835.47;;;-140.95;23.25
38054;BME280;23859;50.672;7.164;2023-05-19T07:53:15;46871.72;;;-140.95;24.38
38054;BME280;23859;50.672;7.164;2023-05-19T07:55:41;46875.75;;;-140.95;25.78
38054;BME280;23859;50.672;7.164;2023-05-19T07:58:07;46839.50;;;-140.95;24.04
38054;BME280;23859;50.672;7.164;2023-05-19T08:00:33;46875.75;;;-140.95;25.10
38054;BME280;23859;50.672;7.164;2023-05-19T08:02:59;46918.06;;;-140.95;26.76
38054;BME280;23859;50.672;7.164;2023-05-19T08:05:26;46942.25;;;-140.95;28.09
38054;BME280;23859;50.672;7.164;2023-05-19T08:07:53;46962.41;;;-140.95;28.58
38054;BME280;23859;50.672;7.164;2023-05-19T08:10:19;46974.47;;;-140.95;29.61
38054;BME280;23859;50.672;7.164;2023-05-19T08:12:45;46990.59;;;-140.95;30.65
38054;BME280;23859;50.672;7.164;2023-05-19T08:15:11;46996.66;;;-140.95;31.56
38054;BME280;23859;50.672;7.164;2023-05-19T08:17:37;47012.75;;;-140.95;31.28
38054;BME280;23859;50.672;7.164;2023-05-19T08:20:04;47010.75;;;-140.95;34.39
38054;BME280;23859;50.672;7.164;2023-05-19T08:22:33;47028.88;;;-140.95;33.16
38054;BME280;23859;50.672;7.164;2023-05-19T08:24:59;47030.91;;;-140.95;32.40
38054;BME280;23859;50.672;7.164;2023-05-19T08:27:26;47008.72;;;-140.95;34.05
38054;BME280;23859;50.672;7.164;2023-05-19T08:29:52;47026.88;;;-140.95;32.06
38054;BME280;23859;50.672;7.164;2023-05-19T08:32:20;47012.75;;;-140.95;30.80
38054;BME280;23859;50.672;7.164;2023-05-19T08:34:46;47030.91;;;-140.95;32.38
38054;BME280;23859;50.672;7.164;2023-05-19T08:37:12;47057.09;;;-140.95;33.36
38054;BME280;23859;50.672;7.164;2023-05-19T08:39:38;47012.75;;;-140.95;33.40
38054;BME280;23859;50.672;7.164;2023-05-19T08:42:04;47010.75;;;-140.95;32.40
38054;BME280;23859;50.672;7.164;2023-05-19T08:44:32;47000.69;;;-140.95;33.16
38054;BME280;23859;50.672;7.164;2023-05-19T08:47:02;47026.88;;;-140.95;32.82
38054;BME280;23859;50.672;7.164;2023-05-19T08:49:45;47022.84;;;-140.95;32.68
38054;BME280;23859;50.672;7.164;2023-05-19T08:55:14;47051.03;;;-140.95;34.53
38054;BME280;23859;50.672;7.164;2023-05-19T08:57:47;47018.81;;;-140.95;32.98
38054;BME280;23859;50.672;7.164;2023-05-19T09:00:14;47002.69;;;-140.95;31.71
38054;BME280;23859;50.672;7.164;2023-05-19T09:02:41;47016.78;;;-140.95;31.98
38054;BME280;23859;50.672;7.164;2023-05-19T09:05:08;47018.81;;;-140.95;33.33
38054;BME280;23859;50.672;7.164;2023-05-19T09:07:36;47030.91;;;-140.95;33.42
38054;BME280;23859;50.672;7.164;2023-05-19T09:10:03;46994.63;;;-140.95;32.84
38054;BME280;23859;50.672;7.164;2023-05-19T09:12:29;47010.75;;;-140.95;33.69
38054;BME280;23859;50.672;7.164;2023-05-19T09:14:56;47002.69;;;-140.95;32.48
38054;BME280;23859;50.672;7.164;2023-05-19T09:17:23;47002.69;;;-140.95;32.80
38054;BME280;23859;50.672;7.164;2023-05-19T09:19:49;46954.34;;;-140.95;33.49
38054;BME280;23859;50.672;7.164;2023-05-19T09:22:16;46903.97;;;-140.95;29.01
38054;BME280;23859;50.672;7.164;2023-05-19T09:24:44;46871.72;;;-140.95;27.23
38054;BME280;23859;50.672;7.164;2023-05-19T09:27:14;46926.13;;;-140.95;28.16
38054;BME280;23859;50.672;7.164;2023-05-19T09:29:47;46932.16;;;-140.95;28.80
38054;BME280;23859;50.672;7.164;2023-05-19T09:32:23;47000.69;;;-140.95;30.05
38054;BME280;23859;50.672;7.164;2023-05-19T09:34:52;47002.69;;;-140.95;34.69
38054;BME280;23859;50.672;7.164;2023-05-19T09:37:22;46952.31;;;-140.95;28.89
38054;BME280;23859;50.672;7.164;2023-05-19T09:39:48;46960.38;;;-140.95;29.44
38054;BME280;23859;50.672;7.164;2023-05-19T09:42:26;46956.34;;;-140.95;31.02
38054;BME280;23859;50.672;7.164;2023-05-19T09:44:59;46946.28;;;-140.95;29.45
38054;BME280;23859;50.672;7.164;2023-05-19T09:47:26;46934.19;;;-140.95;28.75
38054;BME280;23859;50.672;7.164;2023-05-19T09:49:53;46922.09;;;-140.95;29.14
38054;BME280;23859;50.672;7.164;2023-05-19T09:52:20;46972.47;;;-140.95;29.90
38054;BME280;23859;50.672;7.164;2023-05-19T09:54:48;46966.41;;;-140.95;33.19
38054;BME280;23859;50.672;7.164;2023-05-19T09:57:15;47004.72;;;-140.95;29.54
38054;BME280;23859;50.672;7.164;2023-05-19T09:59:41;47010.75;;;-140.95;29.61
38054;BME280;23859;50.672;7.164;2023-05-19T10:02:14;47012.75;;;-140.95;31.60
38054;BME280;23859;50.672;7.164;2023-05-19T10:04:41;47002.69;;;-140.95;31.82
38054;BME280;23859;50.672;7.164;2023-05-19T10:07:12;46976.50;;;-140.95;29.64
38054;BME280;23859;50.672;7.164;2023-05-19T10:09:41;46988.59;;;-140.95;28.42
38054;BME280;23859;50.672;7.164;2023-05-19T10:12:08;47000.69;;;-140.95;29.11
38054;BME280;23859;50.672;7.164;2023-05-19T10:14:35;47010.75;;;-140.95;30.49
38054;BME280;23859;50.672;7.164;2023-05-19T10:17:02;47018.81;;;-140.95;29.11
38054;BME280;23859;50.672;7.164;2023-05-19T10:19:28;47024.84;;;-140.95;28.83
38054;BME280;23859;50.672;7.164;2023-05-19T10:21:55;47026.88;;;-140.95;31.96
38054;BME280;23859;50.672;7.164;2023-05-19T10:24:21;47038.97;;;-140.95;30.53
38054;BME280;23859;50.672;7.164;2023-05-19T10:29:26;47006.72;;;-140.95;27.62
38054;BME280;23859;50.672;7.164;2023-05-19T10:31:55;47010.75;;;-140.95;29.54
38054;BME280;23859;50.672;7.164;2023-05-19T10:40:32;46982.53;;;-140.95;29.66
38054;BME280;23859;50.672;7.164;2023-05-19T10:45:56;46990.59;;;-140.95;26.86
38054;BME280;23859;50.672;7.164;2023-05-19T10:48:22;47006.72;;;-140.95;26.52
38054;BME280;23859;50.672;7.164;2023-05-19T10:50:52;46976.50;;;-140.95;27.93
38054;BME280;23859;50.672;7.164;2023-05-19T10:53:18;46994.63;;;-140.95;26.61
38054;BME280;23859;50.672;7.164;2023-05-19T10:55:52;46974.47;;;-140.95;26.04
38054;BME280;23859;50.672;7.164;2023-05-19T11:01:20;46934.19;;;-140.95;27.34
38054;BME280;23859;50.672;7.164;2023-05-19T11:03:53;46914.03;;;-140.95;24.13
38054;BME280;23859;50.672;7.164;2023-05-19T11:06:29;46905.97;;;-140.95;23.11
38054;BME280;23859;50.672;7.164;2023-05-19T11:09:01;46877.78;;;-140.95;23.38
38054;BME280;23859;50.672;7.164;2023-05-19T11:12:02;46950.31;;;-140.95;24.23
38054;BME280;23859;50.672;7.164;2023-05-19T11:14:28;46944.25;;;-140.95;26.02
38054;BME280;23859;50.672;7.164;2023-05-19T11:16:58;46970.44;;;-140.95;26.70
38054;BME280;23859;50.672;7.164;2023-05-19T11:19:28;46960.38;;;-140.95;25.07
38054;BME280;23859;50.672;7.164;2023-05-19T11:21:55;46926.13;;;-140.95;24.03
38054;BME280;23859;50.672;7.164;2023-05-19T11:24:44;46918.06;;;-140.95;25.02
38054;BME280;23859;50.672;7.164;2023-05-19T11:27:20;46813.28;;;-140.95;21.51
38054;BME280;23859;50.672;7.164;2023-05-19T11:29:48;46714.56;;;-140.95;18.54
38054;BME280;23859;50.672;7.164;2023-05-19T11:32:15;46686.38;;;-140.95;17.40
38054;BME280;23859;50.672;7.164;2023-05-19T11:34:43;46704.50;;;-140.95;17.84
38054;BME280;23859;50.672;7.164;2023-05-19T11:37:10;46595.69;;;-140.95;16.24
38054;BME280;23859;50.672;7.164;2023-05-19T11:39:37;46571.53;;;-140.95;15.10
38054;BME280;23859;50.672;7.164;2023-05-19T11:42:04;46515.13;;;-140.95;14.66
38054;BME280;23859;50.672;7.164;2023-05-19T11:44:30;46567.50;;;-140.95;14.45
38054;BME280;23859;50.672;7.164;2023-05-19T11:46:58;46680.31;;;-140.95;16.70
38054;BME280;23859;50.672;7.164;2023-05-19T11:49:26;46700.47;;;-140.95;18.36
38054;BME280;23859;50.672;7.164;2023-05-19T11:51:53;46744.78;;;-140.95;17.46
38054;BME280;23859;50.672;7.164;2023-05-19T11:54:19;46801.22;;;-140.95;19.21
38054;BME280;23859;50.672;7.164;2023-05-19T11:56:45;46789.13;;;-140.95;19.54
38054;BME280;23859;50.672;7.164;2023-05-19T11:59:12;46775.00;;;-140.95;19.92
38054;BME280;23859;50.672;7.164;2023-05-19T12:01:38;46762.94;;;-140.95;19.17
38054;BME280;23859;50.672;7.164;2023-05-19T12:04:10;46714.56;;;-140.95;19.46
38054;BME280;23859;50.672;7.164;2023-05-19T12:06:36;46696.44;;;-140.95;17.47
38054;BME280;23859;50.672;7.164;2023-05-19T12:09:03;46760.91;;;-140.95;18.28
38054;BME280;23859;50.672;7.164;2023-05-19T12:11:30;46724.66;;;-140.95;17.84
38054;BME280;23859;50.672;7.164;2023-05-19T12:14:00;46746.81;;;-140.95;18.77
38054;BME280;23859;50.672;7.164;2023-05-19T12:16:35;46783.06;;;-140.95;19.93
38054;BME280;23859;50.672;7.164;2023-05-19T12:19:04;46865.69;;;-140.95;21.61
38054;BME280;23859;50.672;7.164;2023-05-19T12:21:32;46889.84;;;-140.95;22.61
38054;BME280;23859;50.672;7.164;2023-05-19T12:23:59;46897.91;;;-140.95;23.23
38054;BME280;23859;50.672;7.164;2023-05-19T12:26:25;46940.22;;;-140.95;23.45
38054;BME280;23859;50.672;7.164;2023-05-19T12:28:52;46946.28;;;-140.95;24.34
38054;BME280;23859;50.672;7.164;2023-05-19T12:31:18;46930.16;;;-140.95;24.86
38054;BME280;23859;50.672;7.164;2023-05-19T12:33:48;46930.16;;;-140.95;25.29
38054;BME280;23859;50.672;7.164;2023-05-19T12:36:18;46926.13;;;-140.95;23.72
38054;BME280;23859;50.672;7.164;2023-05-19T12:38:44;46903.97;;;-140.95;24.76
38054;BME280;23859;50.672;7.164;2023-05-19T12:41:12;47268.66;;;-140.95;23.97
38054;BME280;23859;50.672;7.164;2023-05-19T12:43:39;46918.06;;;-140.95;24.97
38054;BME280;23859;50.672;7.164;2023-05-19T12:46:12;46922.09;;;-140.95;25.11
38054;BME280;23859;50.672;7.164;2023-05-19T12:48:45;46914.03;;;-140.95;23.83
38054;BME280;23859;50.672;7.164;2023-05-19T12:51:18;46944.25;;;-140.95;23.06
38054;BME280;23859;50.672;7.164;2023-05-19T12:53:45;46938.22;;;-140.95;23.17
38054;BME280;23859;50.672;7.164;2023-05-19T12:56:15;46928.13;;;-140.95;24.59
38054;BME280;23859;50.672;7.164;2023-05-19T12:58:42;46932.16;;;-140.95;23.84
38054;BME280;23859;50.672;7.164;2023-05-19T13:01:15;46940.22;;;-140.95;23.72
38054;BME280;23859;50.672;7.164;2023-05-19T13:03:42;46950.31;;;-140.95;24.19
38054;BME280;23859;50.672;7.164;2023-05-19T13:06:08;46924.09;;;-140.95;25.21